createdAt,value
2022-09-11T07:36:52.189Z,100.00
2022-09-11T07:39:31.843Z,100.00
2022-09-11T07:42:19.483Z,100.00
2022-09-11T07:44:57.218Z,100.00
2022-09-11T07:47:34.991Z,100.00
2022-09-11T07:50:13.338Z,100.00
2022-09-11T07:52:53.917Z,100.00
2022-09-11T07:55:31.728Z,100.00
2022-09-11T07:58:09.124Z,100.00
2022-09-11T08:00:47.869Z,100.00
2022-09-11T08:03:29.052Z,100.00
2022-09-11T08:06:10.561Z,100.00
2022-09-11T08:08:50.444Z,100.00
2022-09-11T08:11:30.425Z,100.00
2022-09-11T08:14:07.957Z,100.00
2022-09-11T08:16:45.643Z,100.00
2022-09-11T08:19:25.333Z,100.00
2022-09-11T08:22:06.073Z,100.00
2022-09-11T08:24:51.483Z,100.00
2022-09-11T08:27:29.894Z,100.00
2022-09-11T08:30:07.093Z,100.00
2022-09-11T08:32:44.219Z,100.00
2022-09-11T08:35:21.106Z,100.00
2022-09-11T08:37:59.092Z,100.00
2022-09-11T08:40:41.823Z,100.00
2022-09-11T08:43:26.946Z,100.00
2022-09-11T08:46:11.244Z,100.00
2022-09-11T08:48:59.851Z,100.00
2022-09-11T08:51:37.113Z,100.00
2022-09-11T08:54:30.757Z,100.00
2022-09-11T08:57:23.891Z,100.00
2022-09-11T09:00:14.811Z,100.00
2022-09-11T09:03:51.799Z,100.00
2022-09-11T09:06:57.451Z,100.00
2022-09-11T09:09:47.203Z,100.00
2022-09-11T09:12:39.719Z,100.00
2022-09-11T09:15:34.743Z,100.00
2022-09-11T09:18:19.121Z,100.00
2022-09-11T09:21:09.548Z,100.00
2022-09-11T09:23:51.722Z,100.00
2022-09-11T09:26:38.693Z,97.55
2022-09-11T09:29:25.493Z,96.24
2022-09-11T09:32:08.150Z,94.07
2022-09-11T09:34:48.647Z,91.07
2022-09-11T09:37:27.398Z,88.82
2022-09-11T09:40:10.485Z,86.70
2022-09-11T09:43:25.324Z,82.91
2022-09-11T09:46:19.806Z,82.85
2022-09-11T09:48:57.128Z,81.73
2022-09-11T09:51:35.737Z,79.13
2022-09-11T09:54:19.246Z,80.06
2022-09-11T09:57:03.883Z,74.14
2022-09-11T09:59:46.456Z,75.03
2022-09-11T10:02:43.275Z,73.79
2022-09-11T10:05:29.029Z,69.86
2022-09-11T10:08:08.856Z,66.20
2022-09-11T10:10:45.718Z,63.73
2022-09-11T10:13:26.196Z,65.94
2022-09-11T10:16:05.535Z,64.63
2022-09-11T10:18:47.546Z,67.67
2022-09-11T10:21:33.907Z,66.95
2022-09-11T10:24:26.587Z,65.38
2022-09-11T10:27:03.384Z,67.43
2022-09-11T10:29:40.995Z,68.06
2022-09-11T10:32:21.127Z,68.12
2022-09-11T10:35:02.327Z,65.08
2022-09-11T10:37:39.443Z,64.29
2022-09-11T10:40:25.689Z,63.79
2022-09-11T10:43:02.677Z,64.70
2022-09-11T10:45:40.118Z,63.96
2022-09-11T10:48:25.065Z,65.28
2022-09-11T10:51:14.306Z,64.96
2022-09-11T10:54:08.192Z,64.14
2022-09-11T10:57:01.519Z,63.89
2022-09-11T10:59:46.402Z,63.09
2022-09-11T11:02:30.723Z,63.06
2022-09-11T11:05:11.848Z,62.30
2022-09-11T11:08:17.838Z,59.83
2022-09-11T11:11:15.778Z,60.48
2022-09-11T11:14:14.483Z,58.97
2022-09-11T11:17:03.074Z,59.15
2022-09-11T11:20:14.175Z,57.55
2022-09-11T11:23:39.369Z,57.94
2022-09-11T11:26:37.748Z,56.46
2022-09-11T11:29:46.347Z,56.06
2022-09-11T11:32:50.146Z,55.64
2022-09-11T11:35:34.134Z,55.00
2022-09-11T11:38:23.386Z,53.94
2022-09-11T11:41:07.628Z,52.92
2022-09-11T11:43:48.584Z,52.01
2022-09-11T11:46:30.637Z,50.12
2022-09-11T11:49:15.354Z,48.79
2022-09-11T11:51:59.107Z,48.47
2022-09-11T11:54:47.969Z,47.53
2022-09-11T11:57:29.014Z,48.28
2022-09-11T12:00:12.810Z,47.13
2022-09-11T12:02:57.937Z,46.62
2022-09-11T12:05:37.858Z,47.80
2022-09-11T12:08:17.517Z,48.67
2022-09-11T12:11:05.344Z,48.80
2022-09-11T12:13:47.762Z,49.04
2022-09-11T12:16:29.228Z,48.84
2022-09-11T12:19:20.213Z,49.33
2022-09-11T12:22:16.325Z,48.60
2022-09-11T12:24:59.657Z,48.98
2022-09-11T12:28:12.893Z,48.16
2022-09-11T12:31:03.364Z,47.85
2022-09-11T12:34:00.333Z,48.33
2022-09-11T12:36:54.848Z,47.50
2022-09-11T12:39:36.545Z,47.71
2022-09-11T12:42:50.754Z,47.62
2022-09-11T12:45:44.095Z,47.62
2022-09-11T12:48:26.293Z,47.82
2022-09-11T12:51:04.054Z,48.46
2022-09-11T12:53:46.752Z,48.71
2022-09-11T12:56:26.751Z,48.99
2022-09-11T12:59:08.034Z,48.97
2022-09-11T13:01:48.991Z,50.06
2022-09-11T13:04:31.424Z,51.17
2022-09-11T13:07:11.082Z,52.07
2022-09-11T13:09:52.692Z,52.46
2022-09-11T13:13:06.564Z,54.21
2022-09-11T13:15:45.928Z,55.00
2022-09-11T13:18:35.922Z,55.33
2022-09-11T13:21:26.364Z,56.46
2022-09-11T13:24:07.081Z,57.71
2022-09-11T13:26:45.773Z,58.15
2022-09-11T13:29:27.125Z,60.24
2022-09-11T13:32:10.579Z,61.02
2022-09-11T13:35:02.257Z,62.30
2022-09-11T13:37:43.868Z,63.21
2022-09-11T13:40:27.481Z,65.12
2022-09-11T13:43:06.965Z,65.32
2022-09-11T13:45:44.879Z,65.16
2022-09-11T13:48:26.082Z,65.31
2022-09-11T13:51:07.003Z,65.89
2022-09-11T13:53:45.978Z,65.13
2022-09-11T13:56:47.453Z,64.23
2022-09-11T13:59:49.686Z,65.08
2022-09-11T14:02:50.427Z,64.96
2022-09-11T14:05:31.803Z,64.57
2022-09-11T14:08:25.844Z,64.06
2022-09-11T14:11:10.988Z,64.94
2022-09-11T14:13:56.633Z,65.33
2022-09-11T14:16:38.631Z,63.85
2022-09-11T14:19:21.746Z,62.72
2022-09-11T14:21:59.012Z,62.83
2022-09-11T14:24:41.925Z,63.13
2022-09-11T14:27:41.504Z,62.73
2022-09-11T14:30:38.569Z,62.95
2022-09-11T14:33:29.583Z,63.78
2022-09-11T14:36:14.797Z,64.56
2022-09-11T14:38:53.723Z,63.79
2022-09-11T14:41:33.683Z,63.76
2022-09-11T14:44:13.077Z,62.76
2022-09-11T14:46:50.531Z,62.30
2022-09-11T14:49:27.931Z,62.08
2022-09-11T14:52:05.581Z,62.54
2022-09-11T14:54:43.023Z,63.84
2022-09-11T14:57:26.671Z,65.23
2022-09-11T15:00:03.453Z,65.30
2022-09-11T15:02:41.065Z,64.34
2022-09-11T15:05:23.303Z,65.46
2022-09-11T15:08:01.964Z,66.32
2022-09-11T15:10:40.398Z,66.63
2022-09-11T15:13:22.990Z,67.94
2022-09-11T15:16:02.795Z,67.99
2022-09-11T15:18:42.404Z,69.18
2022-09-11T15:21:25.632Z,69.66
2022-09-11T15:24:13.945Z,70.52
2022-09-11T15:27:00.422Z,71.52
2022-09-11T15:29:48.883Z,71.38
2022-09-11T15:32:32.507Z,71.20
2022-09-11T15:35:17.695Z,71.34
2022-09-11T15:37:56.494Z,71.87
2022-09-11T15:40:33.684Z,72.25
2022-09-11T15:43:10.652Z,73.33
2022-09-11T15:45:50.689Z,74.14
2022-09-11T15:48:28.775Z,75.13
2022-09-11T15:51:11.453Z,76.21
2022-09-11T15:53:52.855Z,78.58
2022-09-11T15:56:36.779Z,79.83
2022-09-11T15:59:15.552Z,82.21
2022-09-11T16:01:55.608Z,82.91
2022-09-11T16:04:35.586Z,84.97
2022-09-11T16:07:13.227Z,84.84
2022-09-11T16:09:50.296Z,84.15
2022-09-11T16:12:27.518Z,84.35
2022-09-11T16:15:04.877Z,85.04
2022-09-11T16:17:45.555Z,86.77
2022-09-11T16:20:22.737Z,86.67
2022-09-11T16:22:59.985Z,87.98
2022-09-11T16:25:42.737Z,88.86
2022-09-11T16:28:19.967Z,89.00
2022-09-11T16:30:57.207Z,90.13
2022-09-11T16:33:44.323Z,91.85
2022-09-11T16:36:23.682Z,92.41
2022-09-11T16:39:02.179Z,93.08
2022-09-11T16:41:40.919Z,94.43
2022-09-11T16:44:20.216Z,94.57
2022-09-11T16:46:57.456Z,95.52
2022-09-11T16:50:05.285Z,96.31
2022-09-11T16:52:35.043Z,97.26
2022-09-11T16:55:15.197Z,97.97
2022-09-11T16:57:53.375Z,98.54
2022-09-11T17:00:32.534Z,99.32
2022-09-11T17:03:09.425Z,100.00
2022-09-11T17:05:54.469Z,100.00
2022-09-11T17:08:32.193Z,100.00
2022-09-11T17:11:14.115Z,100.00
2022-09-11T17:13:52.305Z,100.00
2022-09-11T17:16:33.269Z,100.00
2022-09-11T17:19:11.140Z,100.00
2022-09-11T17:21:51.411Z,100.00
2022-09-11T17:24:28.551Z,100.00
2022-09-11T17:27:06.192Z,100.00
2022-09-11T17:29:44.770Z,100.00
2022-09-11T17:32:29.520Z,100.00
2022-09-11T17:35:06.963Z,100.00
2022-09-11T17:37:48.489Z,100.00
2022-09-11T17:40:25.782Z,100.00
2022-09-11T17:43:03.170Z,100.00
2022-09-11T17:45:40.341Z,100.00
2022-09-11T17:48:17.922Z,100.00
2022-09-11T17:51:02.754Z,100.00
2022-09-11T17:53:45.154Z,100.00
2022-09-11T17:56:25.319Z,100.00
2022-09-11T17:59:04.392Z,100.00
2022-09-11T18:01:41.624Z,100.00
2022-09-11T18:04:18.871Z,100.00
2022-09-11T18:06:55.844Z,100.00
2022-09-11T18:09:35.568Z,100.00
2022-09-11T18:12:12.444Z,100.00
2022-09-11T18:14:49.713Z,100.00
2022-09-11T18:17:26.712Z,100.00
2022-09-11T18:20:05.343Z,100.00
2022-09-11T18:22:42.844Z,100.00
2022-09-11T18:25:25.785Z,100.00
2022-09-11T18:28:04.383Z,100.00
2022-09-11T18:30:43.685Z,100.00
2022-09-11T18:33:20.554Z,100.00
2022-09-11T18:36:01.614Z,100.00
2022-09-11T18:38:43.420Z,100.00
2022-09-11T18:41:29.187Z,100.00
2022-09-11T18:44:12.626Z,100.00
2022-09-11T18:46:55.658Z,100.00
2022-09-11T18:49:35.474Z,100.00
2022-09-11T18:52:15.470Z,100.00
2022-09-11T18:54:52.919Z,100.00
2022-09-11T18:57:38.616Z,100.00
2022-09-11T19:00:21.134Z,100.00
2022-09-11T19:03:00.747Z,100.00
2022-09-11T19:05:37.653Z,100.00
2022-09-11T19:08:15.144Z,100.00
2022-09-11T19:10:55.844Z,100.00
2022-09-11T19:13:39.186Z,100.00
2022-09-11T19:16:20.992Z,100.00
2022-09-11T19:19:00.240Z,100.00
2022-09-11T19:21:41.498Z,100.00
2022-09-11T19:24:19.806Z,100.00
2022-09-11T19:26:57.190Z,100.00
2022-09-11T19:29:37.254Z,100.00
2022-09-11T19:32:14.599Z,100.00
2022-09-11T19:34:51.799Z,100.00
2022-09-11T19:37:28.963Z,100.00
2022-09-11T19:40:07.683Z,100.00
2022-09-11T19:42:44.671Z,100.00
